Time;durP1;ratioP1;P1;durP2;ratioP2;P2;SDS_P1;SDS_P2;PMS_P1;PMS_P2;Temp;Humidity;BMP_temperature;BMP_pressure;BME280_temperature;BME280_humidity;BME280_pressure;Samples;Min_cycle;Max_cycle;Signal;HPM_P1;HPM_P2
2021/10/28 00:13:08;;;;;;;927.28;752.65;;;;;;;;;;5089380;28;20267;-80
2021/10/28 00:15:37;;;;;;;917.25;725.15;;;;;;;;;;5067479;28;20023;-80
2021/10/28 00:20:29;;;;;;;920.83;742.45;;;;;;;;;;5084772;28;20020;-80
2021/10/28 00:22:57;;;;;;;923.63;742.65;;;;;;;;;;5085584;28;20495;-79
2021/10/28 00:25:23;;;;;;;916.80;721.88;;;;;;;;;;5069028;28;20024;-79
2021/10/28 00:27:50;;;;;;;920.67;736.08;;;;;;;;;;5068896;28;20471;-81
2021/10/28 00:30:19;;;;;;;912.30;714.17;;;;;;;;;;5064008;28;20050;-79
2021/10/28 00:32:45;;;;;;;904.88;685.53;;;;;;;;;;5070100;28;20028;-80
2021/10/28 00:35:11;;;;;;;922.45;741.65;;;;;;;;;;5080263;28;20029;-79
2021/10/28 00:37:37;;;;;;;923.03;739.67;;;;;;;;;;5087118;28;20028;-79
2021/10/28 00:40:04;;;;;;;905.42;681.95;;;;;;;;;;5067946;28;20093;-79
2021/10/28 00:42:31;;;;;;;911.58;703.67;;;;;;;;;;5085680;28;20028;-79
2021/10/28 00:44:57;;;;;;;916.20;719.03;;;;;;;;;;5088087;28;20608;-79
2021/10/28 00:47:23;;;;;;;907.80;690.83;;;;;;;;;;5067555;28;20032;-79
2021/10/28 00:49:49;;;;;;;915.85;723.40;;;;;;;;;;5063965;28;20024;-79
2021/10/28 00:52:15;;;;;;;923.30;745.85;;;;;;;;;;5070138;28;20461;-78
2021/10/28 00:54:42;;;;;;;930.65;761.67;;;;;;;;;;5057848;28;20059;-80
2021/10/28 00:57:09;;;;;;;930.72;763.92;;;;;;;;;;5085530;28;20258;-79
2021/10/28 00:59:35;;;;;;;926.92;750.85;;;;;;;;;;5068740;28;20035;-79
2021/10/28 01:02:01;;;;;;;907.33;690.90;;;;;;;;;;5053507;28;20090;-79
2021/10/28 01:04:27;;;;;;;918.55;715.47;;;;;;;;;;5069726;28;20097;-78
2021/10/28 01:06:54;;;;;;;915.42;714.03;;;;;;;;;;5069554;28;20039;-78
2021/10/28 01:09:23;;;;;;;906.90;685.55;;;;;;;;;;5067222;28;20570;-77
2021/10/28 01:11:50;;;;;;;905.03;676.47;;;;;;;;;;5083897;28;20028;-79
2021/10/28 01:14:16;;;;;;;902.90;677.35;;;;;;;;;;5073910;28;20028;-78
2021/10/28 01:16:42;;;;;;;929.33;751.92;;;;;;;;;;5055959;28;20105;-79
2021/10/28 01:19:08;;;;;;;921.28;729.90;;;;;;;;;;5062399;28;20013;-78
2021/10/28 01:21:34;;;;;;;919.90;735.13;;;;;;;;;;5087736;28;20361;-79
2021/10/28 01:24:01;;;;;;;926.22;750.08;;;;;;;;;;5084173;28;20021;-78
2021/10/28 01:26:27;;;;;;;928.08;761.60;;;;;;;;;;5053441;28;20464;-79
2021/10/28 01:29:01;;;;;;;927.78;756.25;;;;;;;;;;5078698;28;20025;-78
2021/10/28 01:31:28;;;;;;;934.58;772.28;;;;;;;;;;5060731;28;20032;-79
2021/10/28 01:33:56;;;;;;;924.63;734.90;;;;;;;;;;5080628;28;20036;-79
2021/10/28 01:36:22;;;;;;;928.85;757.53;;;;;;;;;;5068461;28;20020;-79
2021/10/28 01:38:49;;;;;;;930.97;762.70;;;;;;;;;;5061700;28;20360;-80
2021/10/28 01:41:15;;;;;;;929.53;764.65;;;;;;;;;;5065211;28;20055;-79
2021/10/28 01:43:42;;;;;;;930.47;762.42;;;;;;;;;;5066744;28;20038;-79
2021/10/28 01:46:09;;;;;;;927.88;757.15;;;;;;;;;;5064458;28;20040;-79
2021/10/28 01:48:40;;;;;;;923.67;745.75;;;;;;;;;;5070378;28;20476;-79
2021/10/28 01:51:06;;;;;;;927.05;758.65;;;;;;;;;;5069122;28;20016;-80
2021/10/28 01:53:32;;;;;;;925.65;740.70;;;;;;;;;;5069894;28;20679;-79
2021/10/28 01:55:58;;;;;;;921.08;730.90;;;;;;;;;;5056896;28;20186;-79
2021/10/28 01:58:24;;;;;;;919.88;729.20;;;;;;;;;;5084014;28;20090;-78
2021/10/28 02:00:51;;;;;;;924.88;742.85;;;;;;;;;;5065177;28;20032;-79
2021/10/28 02:03:17;;;;;;;927.90;751.92;;;;;;;;;;5067678;28;20485;-78
2021/10/28 02:05:43;;;;;;;929.28;734.05;;;;;;;;;;5080917;28;20051;-79
2021/10/28 02:08:09;;;;;;;922.78;741.40;;;;;;;;;;5091506;28;20113;-79
2021/10/28 02:10:38;;;;;;;925.38;741.88;;;;;;;;;;5074594;28;20028;-79
2021/10/28 02:13:04;;;;;;;920.03;735.58;;;;;;;;;;5072343;28;20531;-79
2021/10/28 02:15:30;;;;;;;921.28;729.33;;;;;;;;;;5070291;28;20054;-79
2021/10/28 02:17:56;;;;;;;924.88;740.95;;;;;;;;;;5070834;28;20054;-79
2021/10/28 02:20:22;;;;;;;927.42;745.53;;;;;;;;;;5063891;28;20567;-79
2021/10/28 02:22:49;;;;;;;925.65;742.97;;;;;;;;;;5081076;28;20450;-79
2021/10/28 02:25:16;;;;;;;932.78;754.70;;;;;;;;;;5071899;28;20028;-79
2021/10/28 02:27:42;;;;;;;927.67;747.13;;;;;;;;;;5074956;28;20485;-79
2021/10/28 02:30:09;;;;;;;923.78;734.05;;;;;;;;;;5071031;28;20309;-80
2021/10/28 02:32:35;;;;;;;922.08;732.88;;;;;;;;;;5060876;28;20025;-78
2021/10/28 02:35:01;;;;;;;925.33;741.33;;;;;;;;;;5066707;28;20357;-80
2021/10/28 02:37:27;;;;;;;914.70;713.92;;;;;;;;;;5071297;28;20082;-78
2021/10/28 02:39:53;;;;;;;926.47;744.40;;;;;;;;;;5076863;28;20780;-79
2021/10/28 02:42:19;;;;;;;923.50;741.55;;;;;;;;;;5061458;28;20036;-79
2021/10/28 02:44:45;;;;;;;924.58;738.58;;;;;;;;;;5062078;28;20056;-79
2021/10/28 02:47:12;;;;;;;926.50;742.50;;;;;;;;;;5058884;28;20492;-78
2021/10/28 02:49:38;;;;;;;910.33;695.92;;;;;;;;;;5056869;28;20329;-80
2021/10/28 02:52:04;;;;;;;913.92;708.00;;;;;;;;;;5070184;28;20138;-79
2021/10/28 02:54:30;;;;;;;919.30;717.28;;;;;;;;;;5081206;28;20059;-77
2021/10/28 02:56:56;;;;;;;913.83;713.83;;;;;;;;;;5087155;28;20635;-79
2021/10/28 02:59:22;;;;;;;924.50;739.65;;;;;;;;;;5070485;28;20032;-79
2021/10/28 03:01:50;;;;;;;920.22;722.60;;;;;;;;;;5062438;28;20148;-78
2021/10/28 03:04:17;;;;;;;921.42;729.58;;;;;;;;;;5062133;28;20448;-79
2021/10/28 03:06:44;;;;;;;924.10;733.42;;;;;;;;;;5068976;28;20537;-78
2021/10/28 03:09:12;;;;;;;923.53;730.78;;;;;;;;;;5073945;28;20115;-78
2021/10/28 03:11:40;;;;;;;934.78;720.45;;;;;;;;;;5074126;28;20077;-78
2021/10/28 03:14:07;;;;;;;921.72;732.72;;;;;;;;;;5069722;28;20119;-79
2021/10/28 03:16:46;;;;;;;922.05;733.13;;;;;;;;;;5098252;28;20071;-79
2021/10/28 03:27:28;;;;;;;911.60;691.92;;;;;;;;;;5088073;28;20050;-78
2021/10/28 03:29:58;;;;;;;920.95;728.13;;;;;;;;;;5083778;28;20046;-79
2021/10/28 03:32:25;;;;;;;914.10;706.58;;;;;;;;;;5071102;28;20482;-79
2021/10/28 03:34:52;;;;;;;919.80;719.53;;;;;;;;;;5087875;28;20020;-79
2021/10/28 03:50:58;;;;;;;923.90;732.95;;;;;;;;;;5069624;28;20069;-80
2021/10/28 04:02:59;;;;;;;919.17;715.80;;;;;;;;;;5083442;28;20070;-79
2021/10/28 04:07:37;;;;;;;923.75;728.40;;;;;;;;;;5089251;28;20079;-80
2021/10/28 04:29:26;;;;;;;911.67;683.75;;;;;;;;;;5056149;28;20107;-79
2021/10/28 04:31:52;;;;;;;908.40;679.08;;;;;;;;;;5055045;28;20036;-79
2021/10/28 04:34:18;;;;;;;923.08;713.30;;;;;;;;;;5069302;28;20533;-79
2021/10/28 04:36:44;;;;;;;919.03;711.83;;;;;;;;;;5055342;28;20623;-80
2021/10/28 04:39:10;;;;;;;923.55;720.63;;;;;;;;;;5069340;28;20433;-79
2021/10/28 04:41:37;;;;;;;919.05;712.13;;;;;;;;;;5051927;28;20020;-80
2021/10/28 04:44:07;;;;;;;922.35;725.85;;;;;;;;;;5050052;28;20586;-80
2021/10/28 04:46:33;;;;;;;916.83;699.93;;;;;;;;;;5048759;28;20017;-80
2021/10/28 04:48:59;;;;;;;914.92;696.47;;;;;;;;;;5057796;28;20035;-80
2021/10/28 04:51:25;;;;;;;915.92;703.22;;;;;;;;;;5069894;28;20020;-81
2021/10/28 04:53:51;;;;;;;916.88;713.03;;;;;;;;;;5087831;28;20116;-80
2021/10/28 04:56:17;;;;;;;922.47;721.33;;;;;;;;;;5086411;28;20237;-81
2021/10/28 04:58:43;;;;;;;918.28;712.78;;;;;;;;;;5069906;28;20036;-80
2021/10/28 05:01:09;;;;;;;921.00;721.47;;;;;;;;;;5086377;28;20506;-81
2021/10/28 05:03:35;;;;;;;919.67;713.40;;;;;;;;;;5051403;28;20543;-79
2021/10/28 05:06:02;;;;;;;910.30;685.35;;;;;;;;;;5069708;28;20126;-80
2021/10/28 05:08:28;;;;;;;914.15;701.15;;;;;;;;;;5082327;28;20465;-80
2021/10/28 05:10:54;;;;;;;905.28;672.60;;;;;;;;;;5081302;28;20066;-80
2021/10/28 05:13:20;;;;;;;919.92;706.03;;;;;;;;;;5087436;28;20028;-81
2021/10/28 05:15:47;;;;;;;903.33;650.97;;;;;;;;;;5059446;28;20024;-79
2021/10/28 05:18:14;;;;;;;909.38;673.25;;;;;;;;;;5088384;28;20095;-79
2021/10/28 05:20:40;;;;;;;900.67;651.88;;;;;;;;;;5087827;28;20039;-79
2021/10/28 05:23:06;;;;;;;902.58;659.70;;;;;;;;;;5069870;28;20373;-80
2021/10/28 05:25:33;;;;;;;905.92;656.95;;;;;;;;;;5069381;28;20032;-78
2021/10/28 05:27:59;;;;;;;894.30;625.15;;;;;;;;;;5068419;28;20032;-80
2021/10/28 05:30:25;;;;;;;912.83;692.08;;;;;;;;;;5065738;28;20455;-79
2021/10/28 05:32:51;;;;;;;900.33;653.33;;;;;;;;;;5068965;28;20020;-80
2021/10/28 05:35:18;;;;;;;905.22;665.08;;;;;;;;;;5068192;28;20028;-80
2021/10/28 05:37:44;;;;;;;902.08;654.95;;;;;;;;;;5087328;28;20047;-79
2021/10/28 05:40:11;;;;;;;905.63;666.45;;;;;;;;;;5072993;28;20115;-80
2021/10/28 05:42:42;;;;;;;906.50;663.13;;;;;;;;;;5089859;28;20036;-79
2021/10/28 05:45:08;;;;;;;893.35;623.25;;;;;;;;;;5077164;28;20036;-80
2021/10/28 05:47:34;;;;;;;902.30;650.67;;;;;;;;;;5070752;28;20032;-78
2021/10/28 05:50:00;;;;;;;912.70;685.78;;;;;;;;;;5071111;28;20040;-79
2021/10/28 05:52:26;;;;;;;888.95;606.97;;;;;;;;;;5071019;28;20111;-79
2021/10/28 05:54:52;;;;;;;892.83;618.97;;;;;;;;;;5068418;28;20028;-80
2021/10/28 05:57:18;;;;;;;898.47;641.47;;;;;;;;;;5072842;28;20084;-79
2021/10/28 05:59:44;;;;;;;884.53;589.92;;;;;;;;;;5071553;28;20032;-80
2021/10/28 06:02:10;;;;;;;890.03;611.63;;;;;;;;;;5081546;28;20512;-80
2021/10/28 06:04:36;;;;;;;904.97;655.05;;;;;;;;;;5069530;28;20464;-80
2021/10/28 06:07:02;;;;;;;889.92;605.22;;;;;;;;;;5071760;28;20407;-81
2021/10/28 06:09:28;;;;;;;879.22;572.38;;;;;;;;;;5073322;28;20024;-79
2021/10/28 06:11:56;;;;;;;885.53;590.65;;;;;;;;;;5072851;28;20444;-79
2021/10/28 06:14:25;;;;;;;893.47;618.13;;;;;;;;;;5072502;28;20024;-79
2021/10/28 06:16:55;;;;;;;896.15;635.47;;;;;;;;;;5071078;28;20489;-78
2021/10/28 06:19:22;;;;;;;892.85;618.75;;;;;;;;;;5086960;28;20384;-79
2021/10/28 06:21:48;;;;;;;882.08;584.78;;;;;;;;;;5067386;28;20032;-79
2021/10/28 06:24:15;;;;;;;893.83;620.63;;;;;;;;;;5081642;28;20026;-79
2021/10/28 06:26:41;;;;;;;901.03;640.83;;;;;;;;;;5088542;28;20062;-79
2021/10/28 06:29:07;;;;;;;895.13;626.03;;;;;;;;;;5088174;28;20024;-79
2021/10/28 06:31:33;;;;;;;886.92;591.33;;;;;;;;;;5064536;28;20446;-79
2021/10/28 06:34:02;;;;;;;889.88;607.05;;;;;;;;;;5078386;28;20025;-79
2021/10/28 06:36:30;;;;;;;898.58;630.30;;;;;;;;;;5056530;28;20101;-77
2021/10/28 06:38:56;;;;;;;901.50;633.63;;;;;;;;;;5077387;28;20024;-79
2021/10/28 06:41:22;;;;;;;905.50;651.97;;;;;;;;;;5080658;28;20568;-79
2021/10/28 06:43:48;;;;;;;881.30;580.80;;;;;;;;;;5062068;28;20162;-79
2021/10/28 06:46:14;;;;;;;899.80;626.20;;;;;;;;;;5060092;28;20331;-80
2021/10/28 06:48:40;;;;;;;899.85;637.25;;;;;;;;;;5078087;28;20033;-80
2021/10/28 06:51:06;;;;;;;897.20;631.40;;;;;;;;;;5079082;28;20025;-79
2021/10/28 06:53:35;;;;;;;896.60;619.53;;;;;;;;;;5062806;28;20507;-79
2021/10/28 06:56:08;;;;;;;878.08;566.03;;;;;;;;;;5071804;28;20031;-80
2021/10/28 07:04:06;;;;;;;883.17;566.67;;;;;;;;;;5088197;28;20071;-80
2021/10/28 07:06:36;;;;;;;892.25;604.25;;;;;;;;;;5088256;28;20035;-79
2021/10/28 07:09:15;;;;;;;898.60;635.85;;;;;;;;;;5066596;28;20036;-79
2021/10/28 07:11:41;;;;;;;884.90;590.20;;;;;;;;;;5068447;28;20120;-79
2021/10/28 07:14:08;;;;;;;888.60;603.08;;;;;;;;;;5067037;28;20111;-80
2021/10/28 07:25:00;;;;;;;911.78;693.22;;;;;;;;;;5089913;28;20132;-79
2021/10/28 07:30:38;;;;;;;913.13;706.20;;;;;;;;;;5079939;28;20104;-80
2021/10/28 07:55:29;;;;;;;926.35;789.83;;;;;;;;;;5078027;28;20062;-80
2021/10/28 08:19:00;;;;;;;916.60;808.65;;;;;;;;;;5092561;28;20106;-79
2021/10/28 08:29:38;;;;;;;904.47;763.05;;;;;;;;;;5072502;28;20404;-80
2021/10/28 08:32:05;;;;;;;894.55;735.65;;;;;;;;;;5074353;28;20031;-78
2021/10/28 08:34:34;;;;;;;900.75;747.35;;;;;;;;;;5088379;28;20028;-79
2021/10/28 08:37:19;;;;;;;902.60;769.83;;;;;;;;;;5084332;28;20456;-79
2021/10/28 08:39:45;;;;;;;910.45;790.30;;;;;;;;;;5069925;28;20028;-79
2021/10/28 08:42:12;;;;;;;909.08;789.85;;;;;;;;;;5081281;28;20388;-79
2021/10/28 08:44:44;;;;;;;910.40;789.78;;;;;;;;;;5089876;28;20531;-78
2021/10/28 08:47:15;;;;;;;906.90;780.97;;;;;;;;;;5085560;28;20096;-78
2021/10/28 08:49:46;;;;;;;912.38;799.03;;;;;;;;;;5069196;28;20037;-79
2021/10/28 08:57:51;;;;;;;966.83;863.28;;;;;;;;;;5089316;28;20028;-79
2021/10/28 09:28:07;;;;;;;947.13;842.72;;;;;;;;;;5089574;28;20640;-80
2021/10/28 09:30:50;;;;;;;909.15;762.40;;;;;;;;;;5076946;28;20386;-80
2021/10/28 09:33:31;;;;;;;928.90;815.60;;;;;;;;;;5070773;28;20035;-78
2021/10/28 09:43:33;;;;;;;908.50;762.45;;;;;;;;;;5081038;28;20020;-79
2021/10/28 09:48:17;;;;;;;907.88;752.22;;;;;;;;;;5087837;28;20097;-79
2021/10/28 09:50:37;;;;;;;930.13;820.00;;;;;;;;;;5085652;28;21442;-79
2021/10/28 09:53:21;;;;;;;907.75;757.08;;;;;;;;;;5076146;28;20082;-78
2021/10/28 09:58:30;;;;;;;924.63;802.75;;;;;;;;;;5095383;28;20040;-80
2021/10/28 10:00:57;;;;;;;909.33;770.00;;;;;;;;;;5085119;28;20112;-78
2021/10/28 10:03:25;;;;;;;941.78;838.10;;;;;;;;;;5084967;28;20035;-79
2021/10/28 10:06:06;;;;;;;923.50;817.00;;;;;;;;;;5076693;28;20081;-79
2021/10/28 10:08:32;;;;;;;915.60;805.85;;;;;;;;;;5075115;28;20127;-80
2021/10/28 10:10:58;;;;;;;934.20;831.20;;;;;;;;;;5078774;28;20020;-78
2021/10/28 10:13:26;;;;;;;943.33;839.83;;;;;;;;;;5093792;28;20100;-79
2021/10/28 10:15:57;;;;;;;918.63;813.55;;;;;;;;;;5092643;28;20056;-77
2021/10/28 10:18:24;;;;;;;912.25;792.90;;;;;;;;;;5077385;28;20031;-77
2021/10/28 10:20:55;;;;;;;925.17;821.15;;;;;;;;;;5094423;28;20025;-79
2021/10/28 11:03:17;;;;;;;900.13;782.90;;;;;;;;;;5090539;28;20686;-81
2021/10/28 11:32:43;;;;;;;890.22;741.60;;;;;;;;;;5094233;28;20808;-79
2021/10/28 12:45:10;;;;;;;963.50;861.75;;;;;;;;;;5092025;28;20046;-77
2021/10/28 12:48:37;;;;;;;977.08;874.90;;;;;;;;;;5069877;28;20043;-78
2021/10/28 13:53:14;;;;;;;988.42;885.70;;;;;;;;;;5086939;28;20036;-78
2021/10/28 14:18:34;;;;;;;1016.40;912.22;;;;;;;;;;5090289;28;20067;-79
2021/10/28 15:36:47;;;;;;;892.35;743.28;;;;;;;;;;5051963;28;20498;-78
2021/10/28 15:39:25;;;;;;;;;;;;;;;;;;5083692;28;20386;-78
2021/10/28 16:01:26;;;;;;;901.20;761.65;;;;;;;;;;5005807;28;20029;-79
2021/10/28 16:23:17;;;;;;;983.45;878.35;;;;;;;;;;5068990;28;20040;-79
2021/10/28 16:25:46;;;;;;;988.80;883.25;;;;;;;;;;5074174;28;20365;-79
2021/10/28 16:28:15;;;;;;;946.40;843.15;;;;;;;;;;5076202;28;20409;-79
2021/10/28 16:30:41;;;;;;;951.45;848.03;;;;;;;;;;5087420;28;20016;-79
2021/10/28 16:33:07;;;;;;;930.25;827.80;;;;;;;;;;5088682;28;20024;-79
2021/10/28 16:35:34;;;;;;;953.55;850.13;;;;;;;;;;5086910;28;20025;-79
2021/10/28 16:38:00;;;;;;;934.60;831.13;;;;;;;;;;5088730;28;20056;-79
2021/10/28 16:40:26;;;;;;;949.55;846.22;;;;;;;;;;5088398;28;20034;-79
2021/10/28 16:42:52;;;;;;;933.38;830.45;;;;;;;;;;5088564;28;20023;-79
2021/10/28 16:45:18;;;;;;;916.60;806.72;;;;;;;;;;5088436;28;20491;-79
2021/10/28 16:47:44;;;;;;;931.67;827.80;;;;;;;;;;5081194;28;20033;-79
2021/10/28 16:50:11;;;;;;;930.58;825.67;;;;;;;;;;5070213;28;20032;-79
2021/10/28 16:52:37;;;;;;;938.97;835.47;;;;;;;;;;5069837;28;20028;-79
2021/10/28 16:55:04;;;;;;;932.22;827.15;;;;;;;;;;5070108;28;20024;-80
2021/10/28 16:57:30;;;;;;;929.97;826.15;;;;;;;;;;5087794;28;20028;-79
2021/10/28 16:59:57;;;;;;;926.75;821.92;;;;;;;;;;5070262;28;20423;-79
2021/10/28 17:02:23;;;;;;;915.20;789.67;;;;;;;;;;5070373;28;20739;-79
2021/10/28 17:04:49;;;;;;;954.85;850.55;;;;;;;;;;5070345;28;20110;-79
2021/10/28 17:07:15;;;;;;;940.45;836.45;;;;;;;;;;5070491;28;20058;-79
2021/10/28 17:09:41;;;;;;;922.45;813.83;;;;;;;;;;5070021;28;20028;-79
2021/10/28 17:12:07;;;;;;;958.10;853.67;;;;;;;;;;5069986;28;20030;-80
2021/10/28 17:14:33;;;;;;;926.33;816.25;;;;;;;;;;5070118;28;20077;-80
2021/10/28 17:16:59;;;;;;;939.22;811.80;;;;;;;;;;5067695;28;20044;-79
2021/10/28 17:19:26;;;;;;;938.22;806.30;;;;;;;;;;5077614;28;20120;-79
2021/10/28 17:21:52;;;;;;;924.30;804.42;;;;;;;;;;5088594;28;20100;-80
2021/10/28 17:24:30;;;;;;;926.60;804.17;;;;;;;;;;5086445;28;20024;-79
2021/10/28 17:26:56;;;;;;;918.83;786.60;;;;;;;;;;5086854;28;20032;-79
2021/10/28 17:29:22;;;;;;;911.90;763.58;;;;;;;;;;5086744;28;20032;-79
2021/10/28 17:31:51;;;;;;;923.35;797.72;;;;;;;;;;5087375;28;20462;-79
2021/10/28 17:34:17;;;;;;;935.73;831.03;;;;;;;;;;5090833;28;20021;-79
2021/10/28 17:36:48;;;;;;;924.40;796.63;;;;;;;;;;5091920;28;20028;-79
2021/10/28 17:39:14;;;;;;;911.58;760.13;;;;;;;;;;5092261;28;20027;-79
2021/10/28 17:41:40;;;;;;;911.78;767.28;;;;;;;;;;5073726;28;20028;-79
2021/10/28 17:44:07;;;;;;;933.47;806.55;;;;;;;;;;5092661;28;20031;-79
2021/10/28 17:46:33;;;;;;;921.30;787.63;;;;;;;;;;5090278;28;20520;-79
2021/10/28 17:49:00;;;;;;;915.08;769.13;;;;;;;;;;5072699;28;20048;-79
2021/10/28 17:51:26;;;;;;;919.97;786.08;;;;;;;;;;5073735;28;20031;-78
2021/10/28 17:53:53;;;;;;;897.88;724.33;;;;;;;;;;5074269;28;20016;-80
2021/10/28 17:56:19;;;;;;;911.08;751.42;;;;;;;;;;5090878;28;20133;-77
2021/10/28 17:58:47;;;;;;;910.05;758.25;;;;;;;;;;5073267;28;20116;-78
2021/10/28 18:01:15;;;;;;;917.90;772.30;;;;;;;;;;5072992;28;20105;-77
2021/10/28 18:03:41;;;;;;;898.30;723.40;;;;;;;;;;5073154;28;20024;-76
2021/10/28 18:06:07;;;;;;;898.35;720.28;;;;;;;;;;5073170;28;20111;-78
2021/10/28 18:08:34;;;;;;;925.60;807.60;;;;;;;;;;5072909;28;20024;-77
2021/10/28 18:11:00;;;;;;;926.25;803.05;;;;;;;;;;5085987;28;20024;-77
2021/10/28 18:13:26;;;;;;;928.80;809.10;;;;;;;;;;5089536;28;20020;-78
2021/10/28 18:15:52;;;;;;;926.78;811.35;;;;;;;;;;5089152;28;20040;-78
2021/10/28 18:18:18;;;;;;;930.67;817.75;;;;;;;;;;5091168;28;20063;-77
2021/10/28 18:20:44;;;;;;;936.20;831.28;;;;;;;;;;5073505;28;20233;-78
2021/10/28 18:23:10;;;;;;;924.25;809.10;;;;;;;;;;5091135;28;20111;-78
2021/10/28 18:25:36;;;;;;;948.92;844.35;;;;;;;;;;5090924;28;20035;-78
2021/10/28 18:28:02;;;;;;;921.72;805.45;;;;;;;;;;5090941;28;20028;-78
2021/10/28 18:30:29;;;;;;;951.42;847.00;;;;;;;;;;5091102;28;20093;-78
2021/10/28 18:32:56;;;;;;;947.10;841.85;;;;;;;;;;5089536;28;20444;-77
2021/10/28 18:35:23;;;;;;;944.35;820.85;;;;;;;;;;5089620;28;20028;-78
2021/10/28 18:37:49;;;;;;;929.38;815.67;;;;;;;;;;5089856;28;20117;-78
2021/10/28 18:40:16;;;;;;;925.95;817.92;;;;;;;;;;5091181;28;20031;-77
2021/10/28 18:42:43;;;;;;;930.08;820.72;;;;;;;;;;5088880;28;20028;-78
2021/10/28 18:45:10;;;;;;;920.55;797.00;;;;;;;;;;5090850;28;20083;-78
2021/10/28 18:47:36;;;;;;;932.58;817.72;;;;;;;;;;5084321;28;20032;-77
2021/10/28 18:50:04;;;;;;;919.35;789.35;;;;;;;;;;5072333;28;20282;-78
2021/10/28 18:52:30;;;;;;;914.22;771.67;;;;;;;;;;5090511;28;20016;-78
2021/10/28 18:54:56;;;;;;;924.03;795.45;;;;;;;;;;5090686;28;20103;-76
2021/10/28 18:57:22;;;;;;;911.10;761.83;;;;;;;;;;5072263;28;20031;-77
2021/10/28 18:59:49;;;;;;;903.55;736.90;;;;;;;;;;5071601;28;20039;-78
2021/10/28 19:02:15;;;;;;;904.10;739.33;;;;;;;;;;5072871;28;20170;-78
2021/10/28 19:04:41;;;;;;;927.80;799.90;;;;;;;;;;5071789;28;20023;-78
2021/10/28 19:07:09;;;;;;;908.78;759.67;;;;;;;;;;5072494;28;20460;-78
2021/10/28 19:09:35;;;;;;;902.70;736.35;;;;;;;;;;5089752;28;20111;-77
2021/10/28 19:12:01;;;;;;;907.55;753.30;;;;;;;;;;5090206;28;20111;-78
2021/10/28 19:14:27;;;;;;;921.95;789.38;;;;;;;;;;5071830;28;20035;-78
2021/10/28 19:16:54;;;;;;;901.30;734.45;;;;;;;;;;5070803;28;20066;-78
2021/10/28 19:19:20;;;;;;;909.38;760.67;;;;;;;;;;5086257;28;20027;-78
2021/10/28 19:21:46;;;;;;;904.15;745.70;;;;;;;;;;5066084;28;20036;-78
2021/10/28 19:24:12;;;;;;;918.53;787.30;;;;;;;;;;5069002;28;20104;-79
2021/10/28 19:26:38;;;;;;;913.00;767.78;;;;;;;;;;5084936;28;20032;-79
2021/10/28 19:29:08;;;;;;;912.13;768.10;;;;;;;;;;5069278;28;20028;-78
2021/10/28 19:31:36;;;;;;;914.33;772.85;;;;;;;;;;5090138;28;20460;-78
2021/10/28 19:34:04;;;;;;;908.67;764.08;;;;;;;;;;5084584;28;20028;-77
2021/10/28 19:39:32;;;;;;;901.20;726.13;;;;;;;;;;5040054;28;20046;-80
2021/10/28 19:47:14;;;;;;;906.30;730.83;;;;;;;;;;5077317;28;19919;-79
2021/10/28 19:49:41;;;;;;;903.58;734.08;;;;;;;;;;5065833;28;20020;-80
2021/10/28 19:52:08;;;;;;;903.83;731.85;;;;;;;;;;5066013;28;20368;-77
2021/10/28 19:54:35;;;;;;;895.72;709.95;;;;;;;;;;5085518;28;20095;-79
2021/10/28 19:57:02;;;;;;;900.88;722.22;;;;;;;;;;5083384;28;20024;-79
2021/10/28 19:59:32;;;;;;;900.33;717.53;;;;;;;;;;5085572;28;20069;-78
2021/10/28 20:02:03;;;;;;;906.72;737.72;;;;;;;;;;5066777;28;20111;-79
2021/10/28 20:07:24;;;;;;;900.47;723.55;;;;;;;;;;5089744;28;20113;-79
2021/10/28 20:21:24;;;;;;;895.58;693.50;;;;;;;;;;5088104;28;20075;-78
2021/10/28 20:23:50;;;;;;;892.03;691.33;;;;;;;;;;5069264;28;20051;-78
2021/10/28 20:26:17;;;;;;;901.92;709.88;;;;;;;;;;5070584;28;20069;-78
2021/10/28 20:28:45;;;;;;;902.03;723.78;;;;;;;;;;5089318;28;20383;-78
2021/10/28 20:31:13;;;;;;;893.63;687.25;;;;;;;;;;5066651;28;20035;-78
2021/10/28 20:33:46;;;;;;;898.03;705.78;;;;;;;;;;5069170;28;20081;-80
2021/10/28 20:39:05;;;;;;;899.92;700.92;;;;;;;;;;5064642;28;20403;-80
2021/10/28 20:41:31;;;;;;;893.55;679.72;;;;;;;;;;5069856;28;20031;-78
2021/10/28 20:43:58;;;;;;;901.70;715.92;;;;;;;;;;5069911;28;20460;-79
2021/10/28 20:46:25;;;;;;;910.85;749.00;;;;;;;;;;5072696;28;20054;-79
2021/10/28 20:48:52;;;;;;;899.58;712.13;;;;;;;;;;5084882;28;20139;-78
2021/10/28 20:51:18;;;;;;;890.58;684.20;;;;;;;;;;5087205;28;20024;-79
2021/10/28 20:53:46;;;;;;;894.35;693.08;;;;;;;;;;5065483;28;20132;-79
2021/10/28 20:56:12;;;;;;;908.33;727.70;;;;;;;;;;5045355;28;20158;-79
2021/10/28 20:58:39;;;;;;;894.05;694.03;;;;;;;;;;5054703;28;20044;-80
2021/10/28 21:01:05;;;;;;;908.10;738.30;;;;;;;;;;5049788;28;20480;-79
2021/10/28 21:03:31;;;;;;;894.00;701.33;;;;;;;;;;5051842;28;20502;-80
2021/10/28 21:05:59;;;;;;;915.25;762.72;;;;;;;;;;5047611;28;20119;-79
2021/10/28 21:08:25;;;;;;;903.35;722.60;;;;;;;;;;5025355;28;20033;-78
2021/10/28 21:10:54;;;;;;;900.08;712.65;;;;;;;;;;5026495;28;20029;-79
2021/10/28 21:13:21;;;;;;;906.95;731.72;;;;;;;;;;5024705;28;20052;-78
2021/10/28 21:15:47;;;;;;;904.78;719.40;;;;;;;;;;5017201;28;20532;-78
2021/10/28 21:18:13;;;;;;;901.78;709.92;;;;;;;;;;5007306;28;20132;-78
2021/10/28 21:20:40;;;;;;;895.30;695.13;;;;;;;;;;4998954;28;20458;-78
2021/10/28 21:23:06;;;;;;;898.85;697.75;;;;;;;;;;4991950;28;20129;-78
2021/10/28 21:25:32;;;;;;;901.38;707.13;;;;;;;;;;5020983;28;20123;-78
2021/10/28 21:27:58;;;;;;;920.83;765.30;;;;;;;;;;5043731;28;20026;-78
2021/10/28 21:30:24;;;;;;;902.40;708.15;;;;;;;;;;5028056;28;20428;-77
2021/10/28 21:32:50;;;;;;;902.90;711.00;;;;;;;;;;5048471;28;20133;-78
2021/10/28 21:35:16;;;;;;;907.50;725.03;;;;;;;;;;5029623;28;20047;-78
2021/10/28 21:37:43;;;;;;;908.22;729.90;;;;;;;;;;5044528;28;20051;-78
2021/10/28 21:40:10;;;;;;;914.78;743.03;;;;;;;;;;5028040;28;20041;-77
2021/10/28 21:42:39;;;;;;;916.53;752.95;;;;;;;;;;5028530;28;20033;-78
2021/10/28 21:45:06;;;;;;;901.10;708.45;;;;;;;;;;5032395;28;20045;-78
2021/10/28 21:47:34;;;;;;;904.40;721.50;;;;;;;;;;5071381;28;20024;-77
2021/10/28 21:50:00;;;;;;;909.60;729.42;;;;;;;;;;5066641;28;20027;-77
2021/10/28 21:55:03;;;;;;;910.53;727.95;;;;;;;;;;5081148;28;20127;-78
2021/10/28 22:00:26;;;;;;;906.13;704.10;;;;;;;;;;5083363;28;20415;-78
2021/10/28 22:24:54;;;;;;;893.05;657.90;;;;;;;;;;5091556;28;20035;-78
2021/10/28 22:27:21;;;;;;;894.28;657.78;;;;;;;;;;5090795;28;20085;-77
2021/10/28 22:29:47;;;;;;;909.60;709.03;;;;;;;;;;5072202;28;20116;-78
2021/10/28 22:32:14;;;;;;;916.05;735.15;;;;;;;;;;5072716;28;20027;-77
2021/10/28 22:34:41;;;;;;;922.65;731.03;;;;;;;;;;5072511;28;20035;-78
2021/10/28 22:37:24;;;;;;;914.70;735.25;;;;;;;;;;5072187;28;20024;-78
2021/10/28 22:42:18;;;;;;;909.47;707.55;;;;;;;;;;5081450;28;20115;-78
2021/10/28 22:44:44;;;;;;;906.92;701.53;;;;;;;;;;5086505;28;20044;-77
2021/10/28 22:47:11;;;;;;;911.22;720.17;;;;;;;;;;5072132;28;20024;-78
2021/10/28 22:49:37;;;;;;;914.55;730.17;;;;;;;;;;5074911;28;20087;-77
2021/10/28 22:52:12;;;;;;;914.63;725.05;;;;;;;;;;5086297;28;20026;-78
2021/10/28 22:54:38;;;;;;;902.03;682.15;;;;;;;;;;5084920;28;20032;-78
2021/10/28 22:57:08;;;;;;;895.90;663.60;;;;;;;;;;5070667;28;20020;-79
2021/10/28 22:59:35;;;;;;;891.10;655.55;;;;;;;;;;5070750;28;20084;-78
2021/10/28 23:02:16;;;;;;;905.72;703.70;;;;;;;;;;5086764;28;20086;-79
2021/10/28 23:15:06;;;;;;;922.55;746.33;;;;;;;;;;5085351;28;20410;-78
2021/10/28 23:23:02;;;;;;;883.50;607.15;;;;;;;;;;5086239;28;20074;-78
2021/10/28 23:25:28;;;;;;;897.17;661.58;;;;;;;;;;5067816;28;20031;-79
2021/10/28 23:27:53;;;;;;;895.33;661.35;;;;;;;;;;5084434;28;20032;-78
2021/10/28 23:30:20;;;;;;;907.47;687.50;;;;;;;;;;5085179;28;20482;-78
2021/10/28 23:32:46;;;;;;;891.47;631.63;;;;;;;;;;5085089;28;20032;-78
2021/10/28 23:35:12;;;;;;;909.78;698.25;;;;;;;;;;5071945;28;20039;-77
2021/10/28 23:37:38;;;;;;;899.95;670.83;;;;;;;;;;5071922;28;20031;-78
2021/10/28 23:40:05;;;;;;;907.40;696.38;;;;;;;;;;5071115;28;20089;-77
2021/10/28 23:42:31;;;;;;;931.40;771.30;;;;;;;;;;5086604;28;20114;-77
2021/10/28 23:44:56;;;;;;;917.92;738.28;;;;;;;;;;5073905;28;20498;-78